Zelenograd, Russia
Current Conditions -  °F | °C
As of 11:00 PM on Monday 24 Nov 2014 (Local Time) from UUEE Reporting Station
Overcast Overcast  
Wind Chill: 20°   Ceiling: 800
Heat Index: 28°   Visibility: 5mi
Dew Point: 25°   Wind: 9mph
Humidity: 86%   Direction: 200°SSW
Pressure: 30.65"   Gusts: NA
Location:  55.94°N, 37.29°E
Report Text: UUEE 242000Z 20004MPS 8000 OVC008 M02/M04 Q1038 25150056 TEMPO-FZDZ
Loading
Personal Weather Stations






























Interactive Weather Map New forecast layout! Learn more

10-Day Weather Forecast

Advertisements
Track Severe Weather on mobile